Time;durP1;ratioP1;P1;durP2;ratioP2;P2;SDS_P1;SDS_P2;PMS_P1;PMS_P2;Temp;Humidity;BMP_temperature;BMP_pressure;BME280_temperature;BME280_humidity;BME280_pressure;Samples;Min_cycle;Max_cycle;Signal;HPM_P1;HPM_P2
2023/09/07 00:02:17;;;;;;;18.50;7.90;;;;;;;17.83;66.74;101637.59;110771;1211;97690;-61
2023/09/07 00:04:43;;;;;;;17.80;7.60;;;;;;;17.77;66.97;101635.59;110825;1211;97536;-61
2023/09/07 00:07:08;;;;;;;12.30;7.20;;;;;;;17.72;67.11;101636.60;110756;1210;139024;-61
2023/09/07 00:09:33;;;;;;;21.30;7.70;;;;;;;17.67;67.18;101636.15;110871;1210;98110;-60
2023/09/07 00:11:59;;;;;;;12.90;7.40;;;;;;;17.61;67.17;101636.13;110722;1211;139451;-61
2023/09/07 00:14:24;;;;;;;18.70;9.30;;;;;;;17.56;67.20;101636.41;110835;1209;97599;-61
2023/09/07 00:16:49;;;;;;;15.90;7.80;;;;;;;17.52;67.51;101639.48;110856;1211;97792;-61
2023/09/07 00:19:14;;;;;;;13.80;7.10;;;;;;;17.50;67.56;101645.60;110689;1209;140736;-61
2023/09/07 00:21:39;;;;;;;12.70;6.60;;;;;;;17.48;67.84;101644.81;110819;1208;96977;-61
2023/09/07 00:24:06;;;;;;;18.80;7.50;;;;;;;17.45;67.86;101641.70;110701;1211;140096;-60
2023/09/07 00:26:32;;;;;;;12.90;7.50;;;;;;;17.45;67.99;101644.44;110925;1206;97568;-60
2023/09/07 00:28:57;;;;;;;12.00;7.20;;;;;;;17.45;68.12;101647.69;110914;1211;97707;-60
2023/09/07 00:31:23;;;;;;;16.50;7.40;;;;;;;17.45;68.13;101644.23;110610;1211;139750;-61
2023/09/07 00:33:48;;;;;;;10.90;6.80;;;;;;;17.46;68.39;101642.92;110821;1209;97658;-60
2023/09/07 00:36:13;;;;;;;9.20;6.50;;;;;;;17.45;68.24;101643.50;110754;1209;138763;-61
2023/09/07 00:38:38;;;;;;;13.90;6.20;;;;;;;17.46;68.32;101643.13;110836;1206;97703;-61
2023/09/07 00:41:04;;;;;;;9.10;6.20;;;;;;;17.45;68.23;101648.05;111018;1210;97605;-60
2023/09/07 00:43:29;;;;;;;11.30;6.70;;;;;;;17.44;68.35;101647.73;110729;1211;138889;-61
2023/09/07 00:45:55;;;;;;;14.20;6.20;;;;;;;17.41;68.46;101649.15;110860;1209;97684;-60
2023/09/07 00:48:21;;;;;;;10.60;6.60;;;;;;;17.39;68.53;101650.52;110728;1208;140564;-60
2023/09/07 00:50:47;;;;;;;16.30;6.20;;;;;;;17.38;68.49;101656.03;110833;1208;97701;-60
2023/09/07 00:53:14;;;;;;;12.10;7.20;;;;;;;17.36;68.74;101657.23;110855;1209;97604;-60
2023/09/07 00:55:39;;;;;;;14.10;6.90;;;;;;;17.35;68.63;101655.31;110745;1211;138916;-60
2023/09/07 00:58:05;;;;;;;11.30;7.50;;;;;;;17.34;68.77;101653.03;110879;1209;97626;-60
2023/09/07 01:00:30;;;;;;;13.10;6.70;;;;;;;17.30;68.74;101653.59;110708;1209;141127;-60
2023/09/07 01:02:56;;;;;;;8.90;6.20;;;;;;;17.27;68.90;101657.02;110906;1206;97655;-61
2023/09/07 01:05:27;;;;;;;10.70;6.90;;;;;;;17.26;68.84;101658.89;110717;1211;98031;-61
2023/09/07 01:07:58;;;;;;;;;;;;;;;17.23;68.78;101657.61;110843;1209;96446;-61
2023/09/07 01:10:24;;;;;;;12.20;7.30;;;;;;;17.19;68.99;101655.96;110777;1211;102997;-60
2023/09/07 01:12:49;;;;;;;15.10;7.30;;;;;;;17.18;69.01;101655.69;110739;1208;139640;-60
2023/09/07 01:15:14;;;;;;;18.40;7.10;;;;;;;17.16;68.90;101655.07;110869;1206;97649;-61
2023/09/07 01:17:41;;;;;;;9.60;6.30;;;;;;;17.15;69.19;101658.58;110734;1209;139263;-60
2023/09/07 01:20:09;;;;;;;10.10;5.80;;;;;;;17.11;69.06;101657.50;110776;1211;97691;-61
2023/09/07 01:22:36;;;;;;;14.70;7.30;;;;;;;17.11;69.09;101658.56;110895;1209;98250;-61
2023/09/07 01:25:02;;;;;;;12.00;6.80;;;;;;;17.11;69.31;101659.88;110530;1211;139479;-60
2023/09/07 01:27:28;;;;;;;11.80;7.40;;;;;;;17.09;69.26;101657.08;110867;1209;97578;-60
2023/09/07 01:29:53;;;;;;;8.90;6.20;;;;;;;17.07;69.24;101662.77;110679;1207;138816;-61
2023/09/07 01:32:18;;;;;;;15.50;6.50;;;;;;;17.05;69.33;101661.81;110809;1206;97717;-60
2023/09/07 01:34:44;;;;;;;10.20;6.60;;;;;;;17.03;69.38;101663.19;110882;1209;97600;-61
2023/09/07 01:37:09;;;;;;;14.50;7.00;;;;;;;17.01;69.32;101657.15;110726;1210;140478;-60
2023/09/07 01:39:34;;;;;;;23.10;6.60;;;;;;;16.99;69.54;101660.35;110883;1209;97626;-61
2023/09/07 01:41:59;;;;;;;14.30;6.10;;;;;;;16.97;69.43;101659.73;110648;1207;139182;-61
2023/09/07 01:44:26;;;;;;;10.70;6.50;;;;;;;16.95;69.52;101659.48;110867;1209;97662;-61
2023/09/07 01:46:52;;;;;;;14.70;6.80;;;;;;;16.93;69.60;101663.00;110864;1211;111224;-60
2023/09/07 01:49:17;;;;;;;13.40;6.20;;;;;;;16.92;69.63;101658.02;110685;1208;139270;-61
2023/09/07 01:51:42;;;;;;;15.70;7.10;;;;;;;16.90;69.64;101661.36;110917;1211;97679;-60
2023/09/07 01:54:09;;;;;;;9.90;6.20;;;;;;;16.89;69.78;101662.67;110737;1211;138869;-61
2023/09/07 01:56:34;;;;;;;11.70;7.00;;;;;;;16.87;69.73;101664.75;110794;1206;97686;-60
2023/09/07 01:58:59;;;;;;;8.40;6.20;;;;;;;16.85;69.96;101661.43;110877;1211;97678;-60
2023/09/07 02:01:29;;;;;;;11.40;7.30;;;;;;;16.83;69.74;101665.88;110723;1209;138903;-60
2023/09/07 02:03:55;;;;;;;14.80;7.20;;;;;;;16.80;70.02;101663.68;110988;1210;97917;-61
2023/09/07 02:06:20;;;;;;;14.10;6.60;;;;;;;16.78;70.02;101663.83;110697;1209;138529;-61
2023/09/07 02:08:46;;;;;;;9.90;7.10;;;;;;;16.74;69.89;101662.04;110891;1211;97596;-60
2023/09/07 02:11:11;;;;;;;12.60;7.20;;;;;;;16.70;69.99;101660.98;110855;1206;97571;-61
2023/09/07 02:13:36;;;;;;;10.00;6.30;;;;;;;16.69;70.08;101664.34;110775;1211;138616;-61
2023/09/07 02:16:05;;;;;;;9.80;7.00;;;;;;;16.65;70.13;101663.58;110874;1208;97706;-61
2023/09/07 02:18:32;;;;;;;14.60;7.40;;;;;;;16.63;70.16;101665.16;110899;1206;138938;-60
2023/09/07 02:21:04;;;;;;;16.90;7.90;;;;;;;16.58;70.25;101666.99;110932;1209;97853;-61
2023/09/07 02:23:33;;;;;;;17.50;8.30;;;;;;;16.54;70.34;101669.36;110869;1209;138837;-61
2023/09/07 02:25:59;;;;;;;10.60;6.90;;;;;;;16.51;70.44;101661.42;110849;1209;111537;-60
2023/09/07 02:28:25;;;;;;;12.40;7.90;;;;;;;16.49;70.47;101659.89;110880;1207;97647;-60
2023/09/07 02:30:51;;;;;;;14.10;7.70;;;;;;;16.48;70.64;101658.48;110748;1209;138706;-61
2023/09/07 02:33:17;;;;;;;13.90;8.10;;;;;;;16.47;70.82;101661.79;110788;1211;97601;-60
2023/09/07 02:35:42;;;;;;;14.30;7.50;;;;;;;16.45;70.82;101658.29;110743;1210;138637;-61
2023/09/07 02:38:07;;;;;;;11.20;7.70;;;;;;;16.43;70.85;101659.13;110860;1211;97555;-61
2023/09/07 02:40:39;;;;;;;13.50;8.20;;;;;;;16.41;70.89;101659.08;110836;1209;97584;-61
2023/09/07 02:43:04;;;;;;;13.90;7.60;;;;;;;16.38;71.01;101663.90;110740;1212;139205;-61
2023/09/07 02:45:29;;;;;;;15.10;8.60;;;;;;;16.35;70.98;101662.05;110817;1209;97612;-61
2023/09/07 02:47:54;;;;;;;12.20;7.40;;;;;;;16.33;70.99;101664.54;110790;1211;139211;-61
2023/09/07 02:50:20;;;;;;;14.10;7.70;;;;;;;16.29;71.04;101663.08;110827;1209;97936;-61
2023/09/07 02:52:45;;;;;;;15.50;8.30;;;;;;;16.27;71.09;101665.89;111007;1211;97685;-61
2023/09/07 02:55:10;;;;;;;17.20;8.60;;;;;;;16.24;71.00;101666.21;110793;1211;138769;-61
2023/09/07 02:57:35;;;;;;;14.00;7.60;;;;;;;16.21;71.17;101665.84;110928;1211;97783;-62
2023/09/07 03:00:09;;;;;;;17.90;7.80;;;;;;;16.19;71.42;101668.27;110736;1212;139356;-61
2023/09/07 03:02:34;;;;;;;13.80;9.00;;;;;;;16.17;71.36;101665.50;110905;1211;111763;-62
2023/09/07 03:04:59;;;;;;;17.00;8.20;;;;;;;16.15;71.41;101663.61;110782;1209;97714;-61
2023/09/07 03:07:24;;;;;;;16.00;8.00;;;;;;;16.14;71.58;101666.58;110804;1211;139796;-61
2023/09/07 03:09:52;;;;;;;15.90;7.80;;;;;;;16.11;71.48;101668.89;110853;1211;97577;-61
2023/09/07 03:12:17;;;;;;;11.10;7.40;;;;;;;16.09;71.68;101669.18;110725;1211;139361;-61
2023/09/07 03:14:44;;;;;;;13.20;8.10;;;;;;;16.06;71.88;101667.67;110852;1208;97729;-61
2023/09/07 03:17:09;;;;;;;15.60;8.40;;;;;;;16.03;71.97;101668.75;110819;1212;97668;-61
2023/09/07 03:19:36;;;;;;;13.80;7.90;;;;;;;16.01;72.09;101670.09;110728;1211;140429;-62
2023/09/07 03:22:01;;;;;;;16.40;8.20;;;;;;;15.98;72.24;101669.19;110904;1208;97857;-61
2023/09/07 03:24:27;;;;;;;13.20;7.60;;;;;;;15.96;72.31;101670.02;110700;1209;139249;-61
2023/09/07 03:26:53;;;;;;;18.70;8.40;;;;;;;15.93;72.35;101667.63;110848;1208;97594;-61
2023/09/07 03:29:18;;;;;;;14.40;8.00;;;;;;;15.89;72.48;101666.52;110915;1209;97677;-61
2023/09/07 03:31:43;;;;;;;15.00;8.50;;;;;;;15.86;72.64;101668.65;110753;1209;139323;-62
2023/09/07 03:34:08;;;;;;;17.10;8.30;;;;;;;15.83;72.63;101668.61;110811;1208;97662;-61
2023/09/07 03:36:34;;;;;;;15.30;8.00;;;;;;;15.81;72.79;101667.47;110766;1210;139115;-61
2023/09/07 03:38:59;;;;;;;17.70;8.30;;;;;;;15.78;72.92;101667.98;110854;1207;97649;-61
2023/09/07 03:41:30;;;;;;;14.30;8.10;;;;;;;15.77;73.06;101669.84;110903;1209;97648;-61
2023/09/07 03:43:55;;;;;;;15.90;7.90;;;;;;;15.76;73.18;101668.45;110812;1209;98485;-61
2023/09/07 03:46:20;;;;;;;16.90;8.50;;;;;;;15.74;73.23;101669.63;110838;1211;97642;-61
2023/09/07 03:48:45;;;;;;;18.50;8.50;;;;;;;15.73;73.22;101670.44;110810;1209;139582;-61
2023/09/07 03:51:11;;;;;;;19.60;8.90;;;;;;;15.71;73.45;101664.91;110839;1211;98247;-61
2023/09/07 03:53:36;;;;;;;15.70;8.50;;;;;;;15.70;73.49;101667.29;110791;1209;139044;-61
2023/09/07 03:56:03;;;;;;;19.80;9.00;;;;;;;15.68;73.46;101669.04;110804;1211;97677;-61
2023/09/07 03:58:29;;;;;;;20.50;9.10;;;;;;;15.66;73.49;101670.92;110886;1209;97833;-61
2023/09/07 04:00:54;;;;;;;14.20;7.90;;;;;;;15.63;73.54;101672.16;110793;1211;139084;-62
2023/09/07 04:03:19;;;;;;;15.10;9.10;;;;;;;15.61;73.74;101675.30;110821;1207;97351;-61
2023/09/07 04:05:44;;;;;;;20.50;9.50;;;;;;;15.60;73.79;101680.42;110697;1211;139472;-61
2023/09/07 04:08:10;;;;;;;15.80;8.80;;;;;;;15.58;73.84;101680.50;110880;1209;97668;-61
2023/09/07 04:10:38;;;;;;;18.10;8.60;;;;;;;15.57;73.78;101680.20;110839;1211;97667;-61
2023/09/07 04:13:04;;;;;;;13.30;8.90;;;;;;;15.56;73.89;101682.75;110721;1206;140604;-61
2023/09/07 04:15:31;;;;;;;16.60;9.10;;;;;;;15.55;73.92;101688.21;110806;1209;97595;-61
2023/09/07 04:17:56;;;;;;;18.60;9.70;;;;;;;15.54;74.05;101689.34;110689;1211;139940;-61
2023/09/07 04:20:22;;;;;;;33.30;9.60;;;;;;;15.53;74.21;101691.88;110819;1208;97571;-61
2023/09/07 04:22:47;;;;;;;20.20;9.90;;;;;;;15.54;74.22;101695.48;110855;1211;97782;-61
2023/09/07 04:25:12;;;;;;;17.20;9.70;;;;;;;15.53;74.31;101702.88;110708;1209;141202;-61
2023/09/07 04:27:38;;;;;;;20.80;10.20;;;;;;;15.53;74.32;101703.78;110817;1208;98024;-61
2023/09/07 04:30:04;;;;;;;24.60;12.40;;;;;;;15.53;74.39;101702.88;110742;1211;140694;-61
2023/09/07 04:32:29;;;;;;;19.60;11.00;;;;;;;15.53;74.50;101698.73;110925;1209;96649;-61
2023/09/07 04:34:55;;;;;;;15.10;9.10;;;;;;;15.53;74.55;101699.66;110848;1211;97591;-61
2023/09/07 04:37:22;;;;;;;23.40;9.70;;;;;;;15.52;74.59;101700.95;110753;1209;139106;-61
2023/09/07 04:39:52;;;;;;;13.40;9.30;;;;;;;15.51;74.72;101702.98;110936;1206;97593;-61
2023/09/07 04:42:17;;;;;;;12.60;8.90;;;;;;;15.52;74.72;101703.67;110679;1209;139275;-61
2023/09/07 04:44:42;;;;;;;19.50;9.80;;;;;;;15.51;74.85;101703.50;110832;1209;97661;-61
2023/09/07 04:47:07;;;;;;;14.50;9.50;;;;;;;15.52;74.84;101703.13;110802;1211;97680;-61
2023/09/07 04:49:33;;;;;;;23.70;10.00;;;;;;;15.54;75.08;101704.48;110758;1209;139029;-61
2023/09/07 04:51:59;;;;;;;17.20;10.20;;;;;;;15.56;75.14;101707.45;110823;1211;101645;-61
2023/09/07 04:54:24;;;;;;;27.50;9.90;;;;;;;15.58;75.20;101708.63;110719;1211;138796;-61
2023/09/07 04:56:49;;;;;;;18.60;9.50;;;;;;;15.59;75.34;101708.42;110831;1209;98080;-61
2023/09/07 04:59:14;;;;;;;24.20;9.60;;;;;;;15.62;75.22;101712.55;110879;1209;97720;-62
2023/09/07 05:01:40;;;;;;;18.40;10.00;;;;;;;15.64;75.31;101711.58;110709;1208;139060;-62
2023/09/07 05:04:05;;;;;;;28.70;10.00;;;;;;;15.65;75.33;101709.70;110858;1208;97690;-61
2023/09/07 05:06:30;;;;;;;22.40;10.70;;;;;;;15.67;75.34;101708.90;110704;1210;139053;-61
2023/09/07 05:08:55;;;;;;;22.90;10.40;;;;;;;15.67;75.41;101707.98;110971;1209;97595;-61
2023/09/07 05:11:21;;;;;;;21.40;9.90;;;;;;;15.68;75.35;101711.92;110732;1209;97715;-61
2023/09/07 05:13:46;;;;;;;23.60;11.30;;;;;;;15.71;75.64;101712.30;110732;1208;139895;-61
2023/09/07 05:16:11;;;;;;;16.40;10.90;;;;;;;15.74;75.71;101713.77;110923;1211;97773;-61
2023/09/07 05:18:36;;;;;;;17.40;10.90;;;;;;;15.77;75.66;101713.98;110736;1211;139569;-61
2023/09/07 05:21:11;;;;;;;24.60;10.30;;;;;;;15.79;75.50;101716.23;110823;1211;98867;-61
2023/09/07 05:23:36;;;;;;;22.80;11.30;;;;;;;15.81;75.63;101716.88;110722;1211;139531;-61
2023/09/07 05:26:01;;;;;;;29.00;12.20;;;;;;;15.83;75.76;101716.23;110796;1211;97665;-61
2023/09/07 05:28:27;;;;;;;21.70;10.90;;;;;;;15.86;75.80;101716.80;110895;1208;97565;-61
2023/09/07 05:30:52;;;;;;;18.00;10.90;;;;;;;15.89;75.83;101721.52;110701;1211;138768;-61
2023/09/07 05:33:18;;;;;;;24.60;11.40;;;;;;;15.92;75.93;101721.73;110747;1209;97687;-61
2023/09/07 05:35:45;;;;;;;22.60;11.60;;;;;;;15.96;75.99;101724.07;110824;1209;141398;-61
2023/09/07 05:38:11;;;;;;;19.20;11.10;;;;;;;16.00;76.01;101722.46;110783;1209;97704;-61
2023/09/07 05:40:39;;;;;;;18.10;11.30;;;;;;;16.04;76.02;101719.37;110684;1211;97591;-61
2023/09/07 05:43:04;;;;;;;22.00;12.00;;;;;;;16.08;76.09;101719.67;110676;1212;139896;-61
2023/09/07 05:45:31;;;;;;;30.00;12.30;;;;;;;16.14;76.13;101721.02;110860;1211;97668;-61
2023/09/07 05:47:57;;;;;;;18.40;11.50;;;;;;;16.18;76.14;101721.70;110647;1207;139178;-61
2023/09/07 05:50:22;;;;;;;25.30;12.60;;;;;;;16.22;76.14;101724.23;110714;1214;97736;-62
2023/09/07 05:52:47;;;;;;;22.20;12.20;;;;;;;16.25;76.19;101724.98;110866;1211;97557;-61
2023/09/07 05:55:12;;;;;;;41.30;17.60;;;;;;;16.31;76.32;101727.59;110661;1211;138884;-61
2023/09/07 05:57:38;;;;;;;31.90;12.90;;;;;;;16.38;76.34;101728.48;110782;1206;97754;-61
2023/09/07 06:00:04;;;;;;;31.70;12.60;;;;;;;16.46;76.28;101722.83;110625;1209;140324;-61
2023/09/07 06:02:30;;;;;;;29.30;11.10;;;;;;;16.57;76.44;101724.11;110933;1211;98616;-61
2023/09/07 06:04:56;;;;;;;27.60;12.80;;;;;;;16.67;76.40;101727.73;110768;1208;97623;-60
2023/09/07 06:07:21;;;;;;;30.10;13.10;;;;;;;16.74;76.11;101731.17;110596;1211;140353;-61
2023/09/07 06:09:46;;;;;;;31.10;12.80;;;;;;;16.79;76.12;101733.24;110775;1212;97700;-61
2023/09/07 06:12:13;;;;;;;23.50;11.30;;;;;;;16.85;76.09;101734.04;110698;1210;138776;-62
2023/09/07 06:14:38;;;;;;;27.80;11.80;;;;;;;16.91;76.22;101737.89;110839;1211;99236;-62
2023/09/07 06:17:03;;;;;;;24.90;11.90;;;;;;;16.99;76.23;101738.71;110862;1212;97679;-62
2023/09/07 06:19:29;;;;;;;22.50;11.80;;;;;;;17.05;76.04;101738.40;110771;1209;140097;-61
2023/09/07 06:21:54;;;;;;;25.00;12.20;;;;;;;17.10;76.18;101740.30;110727;1209;97758;-62
2023/09/07 06:24:20;;;;;;;28.00;12.10;;;;;;;17.16;76.02;101738.52;110693;1211;138660;-61
2023/09/07 06:26:46;;;;;;;25.00;10.90;;;;;;;17.21;76.02;101738.96;110866;1210;97649;-61
2023/09/07 06:29:11;;;;;;;22.90;11.30;;;;;;;17.26;75.97;101739.06;110837;1210;97604;-62
2023/09/07 06:31:36;;;;;;;21.40;11.30;;;;;;;17.32;76.01;101739.12;110821;1211;140371;-61
2023/09/07 06:34:02;;;;;;;24.50;12.60;;;;;;;17.37;76.02;101740.50;110880;1210;97582;-61
2023/09/07 06:36:29;;;;;;;22.00;12.30;;;;;;;17.41;75.98;101739.15;110638;1211;138646;-61
2023/09/07 06:38:55;;;;;;;24.20;11.80;;;;;;;17.46;75.90;101740.14;110857;1209;97572;-61
2023/09/07 06:41:20;;;;;;;21.50;11.80;;;;;;;17.51;75.80;101739.87;110865;1211;98220;-61
2023/09/07 06:43:45;;;;;;;27.90;12.40;;;;;;;17.57;75.81;101743.69;110632;1211;140224;-61
2023/09/07 06:46:10;;;;;;;24.40;11.50;;;;;;;17.65;75.84;101747.63;110818;1211;97569;-61
2023/09/07 06:48:36;;;;;;;26.80;11.50;;;;;;;17.71;75.93;101744.75;110680;1211;139965;-61
2023/09/07 06:51:03;;;;;;;23.80;12.10;;;;;;;17.78;75.90;101748.52;110747;1212;97637;-61
2023/09/07 06:53:29;;;;;;;28.20;11.90;;;;;;;17.86;75.78;101744.29;113163;1209;95725;-61
2023/09/07 06:55:58;;;;;;;26.70;12.30;;;;;;;17.94;75.66;101746.89;111336;1209;139191;-61
2023/09/07 06:58:23;;;;;;;20.70;11.40;;;;;;;18.04;75.60;101745.81;111363;1209;98022;-61
2023/09/07 07:00:49;;;;;;;23.90;11.20;;;;;;;18.14;75.59;101749.87;110698;1212;140658;-61
2023/09/07 07:03:14;;;;;;;22.00;11.70;;;;;;;18.23;75.46;101756.24;110788;1211;97686;-61
2023/09/07 07:05:39;;;;;;;19.70;11.50;;;;;;;18.31;75.35;101758.13;110769;1209;140668;-61
2023/09/07 07:08:04;;;;;;;19.00;11.30;;;;;;;18.40;75.36;101761.23;110951;1211;97729;-61
2023/09/07 07:10:30;;;;;;;20.10;11.00;;;;;;;18.47;75.20;101759.55;110876;1209;97575;-61
2023/09/07 07:12:55;;;;;;;24.30;10.90;;;;;;;18.55;75.13;101756.92;110885;1211;138797;-65
2023/09/07 07:15:20;;;;;;;25.50;10.80;;;;;;;18.64;75.14;101753.11;110889;1212;97594;-61
2023/09/07 07:17:45;;;;;;;21.60;10.60;;;;;;;18.72;75.16;101755.17;110825;1211;139448;-60
2023/09/07 07:20:11;;;;;;;29.80;11.10;;;;;;;18.80;75.05;101755.77;111003;1212;97621;-61
2023/09/07 07:22:36;;;;;;;28.40;11.00;;;;;;;18.89;74.90;101756.19;110909;1211;97688;-62
2023/09/07 07:25:05;;;;;;;18.70;9.70;;;;;;;18.99;74.84;101758.08;110842;1211;139948;-61
2023/09/07 07:27:31;;;;;;;28.50;10.20;;;;;;;19.08;74.75;101762.23;110865;1227;97681;-61
2023/09/07 07:29:57;;;;;;;27.30;10.50;;;;;;;19.16;74.71;101762.11;110850;1209;141059;-61
2023/09/07 07:32:22;;;;;;;41.00;12.20;;;;;;;19.24;74.52;101764.35;110897;1208;97703;-62
2023/09/07 07:34:47;;;;;;;25.70;10.40;;;;;;;19.33;74.48;101761.55;110899;1211;97721;-61
2023/09/07 07:37:12;;;;;;;32.00;10.50;;;;;;;19.41;74.17;101761.80;110826;1209;139452;-61
2023/09/07 07:39:38;;;;;;;21.10;10.50;;;;;;;19.49;74.10;101764.05;110903;1211;97633;-61
2023/09/07 07:42:04;;;;;;;22.50;10.70;;;;;;;19.56;73.90;101765.41;110787;1209;139597;-61
2023/09/07 07:44:29;;;;;;;22.30;10.50;;;;;;;19.63;73.73;101768.23;110876;1212;96799;-62
2023/09/07 07:46:55;;;;;;;20.00;8.50;;;;;;;19.71;73.75;101775.50;110960;1206;97592;-62
2023/09/07 07:49:20;;;;;;;21.70;9.70;;;;;;;19.82;73.58;101775.59;110739;1206;140645;-61
2023/09/07 07:51:45;;;;;;;16.70;8.50;;;;;;;19.90;73.40;101778.66;110980;1211;97693;-61
2023/09/07 07:54:10;;;;;;;18.90;8.90;;;;;;;20.00;73.35;101779.46;110831;1206;140221;-61
2023/09/07 07:56:36;;;;;;;19.30;8.50;;;;;;;20.11;73.26;101778.20;110994;1211;97731;-63
2023/09/07 07:59:02;;;;;;;17.40;7.90;;;;;;;20.23;73.01;101781.80;110892;1211;97549;-61
2023/09/07 08:01:27;;;;;;;13.80;8.20;;;;;;;20.33;72.92;101783.13;110760;1212;139908;-61
2023/09/07 08:03:52;;;;;;;14.40;7.50;;;;;;;20.44;72.79;101778.44;110968;1208;97653;-61
2023/09/07 08:06:18;;;;;;;19.30;8.10;;;;;;;20.56;72.67;101777.45;110788;1212;139607;-61
2023/09/07 08:08:43;;;;;;;20.80;9.10;;;;;;;20.66;72.32;101777.31;110922;1211;97686;-61
2023/09/07 08:11:09;;;;;;;14.90;7.90;;;;;;;20.72;72.13;101780.69;110980;1208;97600;-61
2023/09/07 08:13:35;;;;;;;18.00;7.30;;;;;;;20.78;71.99;101778.09;110819;1211;138947;-61
2023/09/07 08:16:02;;;;;;;16.90;7.40;;;;;;;20.84;71.80;101772.74;110936;1206;97572;-62
2023/09/07 08:18:28;;;;;;;16.70;7.70;;;;;;;20.94;71.73;101777.70;110903;1212;138664;-61
2023/09/07 08:20:54;;;;;;;11.70;7.20;;;;;;;21.04;71.58;101777.54;110918;1212;97565;-61
2023/09/07 08:23:22;;;;;;;14.90;7.40;;;;;;;21.14;71.38;101778.34;110898;1212;97703;-61
2023/09/07 08:25:47;;;;;;;14.40;6.60;;;;;;;21.22;71.25;101774.52;110883;1211;139295;-61
2023/09/07 08:28:12;;;;;;;10.90;6.60;;;;;;;21.29;70.84;101776.95;110997;1209;97690;-61
2023/09/07 08:30:37;;;;;;;12.20;7.40;;;;;;;21.35;70.65;101780.33;110788;1206;139226;-61
2023/09/07 08:33:05;;;;;;;15.90;6.90;;;;;;;21.40;70.47;101773.95;110949;1212;97674;-61
2023/09/07 08:35:35;;;;;;;14.30;7.00;;;;;;;21.47;70.25;101770.38;110898;1211;97670;-61
2023/09/07 08:38:08;;;;;;;14.80;7.50;;;;;;;21.54;69.93;101770.94;110732;1212;97675;-61
2023/09/07 08:40:35;;;;;;;16.40;6.60;;;;;;;21.62;69.90;101772.16;110685;1210;99843;-62
2023/09/07 08:43:03;;;;;;;13.40;7.30;;;;;;;21.70;69.57;101769.97;110332;1209;139333;-62
2023/09/07 08:45:29;;;;;;;13.80;8.00;;;;;;;21.75;69.35;101772.02;110763;1211;98116;-61
2023/09/07 08:47:56;;;;;;;9.00;6.00;;;;;;;21.81;69.19;101768.98;110640;1210;139446;-62
2023/09/07 08:50:23;;;;;;;17.50;7.20;;;;;;;21.90;68.97;101763.98;110738;1206;97542;-61
2023/09/07 08:52:52;;;;;;;14.90;7.00;;;;;;;21.98;68.87;101761.37;110830;1212;97777;-62
2023/09/07 08:55:17;;;;;;;14.00;6.30;;;;;;;22.09;68.70;101762.79;110765;1211;140166;-62
2023/09/07 08:57:43;;;;;;;10.40;6.30;;;;;;;22.20;68.45;101762.36;110863;1212;97691;-61
2023/09/07 09:00:15;;;;;;;10.50;6.10;;;;;;;22.32;68.02;101762.67;110765;1211;139501;-61
2023/09/07 09:02:40;;;;;;;17.20;5.90;;;;;;;22.41;67.83;101759.81;110859;1206;98852;-61
2023/09/07 09:05:09;;;;;;;11.40;6.50;;;;;;;22.48;67.58;101760.42;110832;1211;99193;-62
2023/09/07 09:07:34;;;;;;;10.30;5.90;;;;;;;22.56;67.25;101761.58;110841;1212;138812;-62
2023/09/07 09:10:05;;;;;;;17.10;6.00;;;;;;;22.66;67.11;101755.75;110852;1212;97671;-62
2023/09/07 09:12:30;;;;;;;14.20;7.00;;;;;;;22.74;66.82;101757.12;110595;1212;138026;-62
2023/09/07 09:14:55;;;;;;;22.30;6.70;;;;;;;22.85;66.67;101758.11;110717;1212;97581;-62
2023/09/07 09:17:20;;;;;;;20.00;6.10;;;;;;;22.94;66.26;101758.65;110853;1212;97840;-62
2023/09/07 09:19:46;;;;;;;14.70;5.50;;;;;;;23.05;66.17;101767.50;110754;1218;138511;-62
2023/09/07 09:22:11;;;;;;;21.60;5.50;;;;;;;23.13;65.61;101765.41;110820;1209;97645;-62
2023/09/07 09:24:37;;;;;;;11.20;6.10;;;;;;;23.19;65.31;101763.14;110569;1212;139715;-61
2023/09/07 09:27:04;;;;;;;9.50;6.10;;;;;;;23.26;65.13;101763.84;110863;1212;97600;-62
2023/09/07 09:29:32;;;;;;;10.10;5.80;;;;;;;23.32;64.62;101763.17;110903;1212;97780;-62
2023/09/07 09:32:00;;;;;;;8.10;5.70;;;;;;;23.39;64.52;101760.09;110820;1212;97539;-62
2023/09/07 09:34:26;;;;;;;9.10;5.00;;;;;;;23.47;64.19;101760.30;110800;1212;97622;-62
2023/09/07 09:36:51;;;;;;;19.50;6.00;;;;;;;23.54;63.74;101761.05;110671;1212;138260;-62
2023/09/07 09:39:24;;;;;;;14.20;5.50;;;;;;;23.59;63.80;101762.98;110817;1207;97627;-62
2023/09/07 09:41:49;;;;;;;16.10;5.40;;;;;;;23.67;63.56;101763.45;110748;1210;139231;-62
2023/09/07 09:44:16;;;;;;;10.60;5.50;;;;;;;23.76;63.41;101763.82;110837;1209;97625;-62
2023/09/07 09:46:43;;;;;;;11.80;5.50;;;;;;;23.83;63.03;101760.27;110841;1209;97767;-62
2023/09/07 09:49:11;;;;;;;10.60;4.80;;;;;;;23.88;62.70;101756.60;110791;1211;138137;-63
2023/09/07 09:51:38;;;;;;;11.70;4.40;;;;;;;23.95;62.52;101756.07;110802;1209;98027;-63
2023/09/07 09:54:04;;;;;;;9.00;4.40;;;;;;;24.02;62.15;101753.49;110754;1212;138242;-62
2023/09/07 09:56:30;;;;;;;6.50;4.20;;;;;;;24.09;61.76;101753.64;110834;1209;97569;-62
2023/09/07 09:58:55;;;;;;;9.10;4.90;;;;;;;24.16;61.57;101750.89;110982;1212;97632;-63
2023/09/07 10:01:22;;;;;;;7.90;4.40;;;;;;;24.21;61.22;101749.33;110655;1207;138355;-63
2023/09/07 10:03:50;;;;;;;11.50;4.50;;;;;;;24.29;60.87;101750.94;110869;1212;98034;-61
2023/09/07 10:06:22;;;;;;;10.70;4.60;;;;;;;24.38;60.87;101747.81;110658;1206;138119;-62
2023/09/07 10:09:06;;;;;;;12.90;5.20;;;;;;;24.49;60.58;101743.36;110850;1207;97601;-61
2023/09/07 10:11:33;;;;;;;8.90;5.00;;;;;;;24.63;60.39;101746.00;110975;1210;138381;-61
2023/09/07 10:14:00;;;;;;;7.20;4.80;;;;;;;24.72;59.94;101742.65;110862;1208;97681;-61
2023/09/07 10:16:27;;;;;;;6.20;4.10;;;;;;;24.79;59.70;101742.63;111021;1206;98276;-62
2023/09/07 10:18:52;;;;;;;8.80;4.30;;;;;;;24.85;59.26;101740.21;110655;1209;138156;-61
2023/09/07 10:21:17;;;;;;;11.00;4.60;;;;;;;24.90;59.02;101734.89;110821;1209;97723;-61
2023/09/07 10:23:44;;;;;;;6.60;4.10;;;;;;;24.97;58.54;101735.80;110746;1212;97572;-61
2023/09/07 10:26:17;;;;;;;9.50;4.00;;;;;;;25.08;58.47;101737.98;110884;1209;98157;-61
2023/09/07 10:28:44;;;;;;;8.00;3.70;;;;;;;25.18;58.01;101733.39;110888;1212;103034;-61
2023/09/07 10:31:18;;;;;;;10.70;3.90;;;;;;;25.28;57.70;101732.15;110756;1216;139655;-61
2023/09/07 10:33:44;;;;;;;8.10;3.80;;;;;;;25.38;57.44;101733.28;110837;1206;99155;-61
2023/09/07 10:36:21;;;;;;;8.60;4.10;;;;;;;25.47;56.99;101733.56;110794;1212;139195;-61
2023/09/07 10:38:46;;;;;;;6.50;4.00;;;;;;;25.54;56.59;101730.50;110980;1212;97690;-63
2023/09/07 10:41:12;;;;;;;9.20;4.20;;;;;;;25.61;56.29;101730.50;110811;1212;98215;-61
2023/09/07 10:43:56;;;;;;;6.20;4.20;;;;;;;25.66;56.02;101732.64;110792;1208;138200;-63
2023/09/07 10:46:23;;;;;;;9.70;4.20;;;;;;;25.77;55.84;101731.60;110815;1206;97731;-62
2023/09/07 10:48:50;;;;;;;9.70;4.80;;;;;;;25.87;55.66;101727.44;110812;1209;138827;-59
2023/09/07 10:51:16;;;;;;;9.10;4.60;;;;;;;25.98;55.42;101719.81;110916;1206;97677;-59
2023/09/07 10:53:41;;;;;;;16.00;4.80;;;;;;;26.01;55.18;101717.29;110780;1209;97868;-60
2023/09/07 10:56:07;;;;;;;6.10;4.10;;;;;;;26.04;54.68;101717.16;110766;1212;97748;-61
2023/09/07 10:58:34;;;;;;;5.60;4.10;;;;;;;26.06;54.51;101717.06;110815;1211;97651;-61
2023/09/07 11:01:01;;;;;;;6.10;4.00;;;;;;;26.09;54.33;101718.77;110748;1207;138775;-61